sensor_id;sensor_type;location;lat;lon;timestamp;temperature;humidity
51655;DHT22;37732;53.106;7.030;2023-10-09T00:00:09;13.40;99.90
51655;DHT22;37732;53.106;7.030;2023-10-09T00:02:53;13.40;99.90
51655;DHT22;37732;53.106;7.030;2023-10-09T00:05:20;13.40;99.90
51655;DHT22;37732;53.106;7.030;2023-10-09T00:08:04;13.50;99.90
51655;DHT22;37732;53.106;7.030;2023-10-09T00:10:31;13.50;99.90
51655;DHT22;37732;53.106;7.030;2023-10-09T00:13:11;13.50;99.90
51655;DHT22;37732;53.106;7.030;2023-10-09T00:15:37;13.50;99.90
51655;DHT22;37732;53.106;7.030;2023-10-09T00:18:04;13.40;99.90
51655;DHT22;37732;53.106;7.030;2023-10-09T00:20:38;13.40;99.90
51655;DHT22;37732;53.106;7.030;2023-10-09T00:23:09;13.50;99.90
51655;DHT22;37732;53.106;7.030;2023-10-09T00:25:51;13.40;99.90
51655;DHT22;37732;53.106;7.030;2023-10-09T00:28:38;13.50;99.90
51655;DHT22;37732;53.106;7.030;2023-10-09T00:31:09;13.40;99.90
51655;DHT22;37732;53.106;7.030;2023-10-09T00:33:42;13.40;99.90
51655;DHT22;37732;53.106;7.030;2023-10-09T00:36:09;13.40;99.90
51655;DHT22;37732;53.106;7.030;2023-10-09T00:38:40;13.50;99.90
51655;DHT22;37732;53.106;7.030;2023-10-09T00:41:17;13.50;99.90
51655;DHT22;37732;53.106;7.030;2023-10-09T00:43:48;13.50;99.90
51655;DHT22;37732;53.106;7.030;2023-10-09T00:46:18;13.50;99.90
51655;DHT22;37732;53.106;7.030;2023-10-09T00:48:45;13.50;99.90
51655;DHT22;37732;53.106;7.030;2023-10-09T00:51:13;13.50;99.90
51655;DHT22;37732;53.106;7.030;2023-10-09T00:54:05;13.50;99.90
51655;DHT22;37732;53.106;7.030;2023-10-09T00:56:34;13.50;99.90
51655;DHT22;37732;53.106;7.030;2023-10-09T00:59:05;13.50;99.90
51655;DHT22;37732;53.106;7.030;2023-10-09T01:04:11;13.50;99.90
51655;DHT22;37732;53.106;7.030;2023-10-09T01:06:44;13.50;99.90
51655;DHT22;37732;53.106;7.030;2023-10-09T01:09:14;13.50;99.90
51655;DHT22;37732;53.106;7.030;2023-10-09T01:11:43;13.50;99.90
51655;DHT22;37732;53.106;7.030;2023-10-09T01:14:24;13.50;99.90
51655;DHT22;37732;53.106;7.030;2023-10-09T01:16:50;13.50;99.90
51655;DHT22;37732;53.106;7.030;2023-10-09T01:19:20;13.50;99.90
51655;DHT22;37732;53.106;7.030;2023-10-09T01:21:57;13.50;99.90
51655;DHT22;37732;53.106;7.030;2023-10-09T01:24:40;13.50;99.90
51655;DHT22;37732;53.106;7.030;2023-10-09T01:27:06;13.50;99.90
51655;DHT22;37732;53.106;7.030;2023-10-09T01:29:42;13.50;99.90
51655;DHT22;37732;53.106;7.030;2023-10-09T01:32:09;13.40;99.90
51655;DHT22;37732;53.106;7.030;2023-10-09T01:34:45;13.50;99.90
51655;DHT22;37732;53.106;7.030;2023-10-09T01:37:15;13.50;99.90
51655;DHT22;37732;53.106;7.030;2023-10-09T01:39:49;13.50;99.90
51655;DHT22;37732;53.106;7.030;2023-10-09T01:42:17;13.50;99.90
51655;DHT22;37732;53.106;7.030;2023-10-09T01:45:11;13.50;99.90
51655;DHT22;37732;53.106;7.030;2023-10-09T01:47:37;13.50;99.90
51655;DHT22;37732;53.106;7.030;2023-10-09T01:50:05;13.50;99.90
51655;DHT22;37732;53.106;7.030;2023-10-09T01:52:35;13.50;99.90
51655;DHT22;37732;53.106;7.030;2023-10-09T01:55:03;13.60;99.90
51655;DHT22;37732;53.106;7.030;2023-10-09T01:57:49;13.50;99.90
51655;DHT22;37732;53.106;7.030;2023-10-09T02:00:17;13.60;99.90
51655;DHT22;37732;53.106;7.030;2023-10-09T02:02:50;13.60;99.90
51655;DHT22;37732;53.106;7.030;2023-10-09T02:05:16;13.60;99.90
51655;DHT22;37732;53.106;7.030;2023-10-09T02:07:42;13.60;99.90
51655;DHT22;37732;53.106;7.030;2023-10-09T02:10:19;13.60;99.90
51655;DHT22;37732;53.106;7.030;2023-10-09T02:12:57;13.60;99.90
51655;DHT22;37732;53.106;7.030;2023-10-09T02:18:11;13.60;99.90
51655;DHT22;37732;53.106;7.030;2023-10-09T02:20:52;13.60;99.90
51655;DHT22;37732;53.106;7.030;2023-10-09T02:23:38;13.60;99.90
51655;DHT22;37732;53.106;7.030;2023-10-09T02:26:10;13.60;99.90
51655;DHT22;37732;53.106;7.030;2023-10-09T02:28:43;13.60;99.90
51655;DHT22;37732;53.106;7.030;2023-10-09T02:31:10;13.60;99.90
51655;DHT22;37732;53.106;7.030;2023-10-09T02:33:37;13.60;99.90
51655;DHT22;37732;53.106;7.030;2023-10-09T02:36:05;13.60;99.90
51655;DHT22;37732;53.106;7.030;2023-10-09T02:38:33;13.60;99.90
51655;DHT22;37732;53.106;7.030;2023-10-09T02:41:02;13.50;99.90
51655;DHT22;37732;53.106;7.030;2023-10-09T02:43:28;13.50;99.90
51655;DHT22;37732;53.106;7.030;2023-10-09T02:46:03;13.50;99.90
51655;DHT22;37732;53.106;7.030;2023-10-09T02:48:56;13.50;99.90
51655;DHT22;37732;53.106;7.030;2023-10-09T02:51:27;13.50;99.90
51655;DHT22;37732;53.106;7.030;2023-10-09T02:53:55;13.40;99.90
51655;DHT22;37732;53.106;7.030;2023-10-09T02:56:23;13.40;99.90
51655;DHT22;37732;53.106;7.030;2023-10-09T02:58:51;13.40;99.90
51655;DHT22;37732;53.106;7.030;2023-10-09T03:01:17;13.40;99.90
51655;DHT22;37732;53.106;7.030;2023-10-09T03:03:43;14.00;99.90
51655;DHT22;37732;53.106;7.030;2023-10-09T03:06:14;13.40;99.90
51655;DHT22;37732;53.106;7.030;2023-10-09T03:08:48;13.40;99.90
51655;DHT22;37732;53.106;7.030;2023-10-09T03:11:15;13.40;99.90
51655;DHT22;37732;53.106;7.030;2023-10-09T03:13:42;13.40;99.90
51655;DHT22;37732;53.106;7.030;2023-10-09T03:16:11;13.40;99.90
51655;DHT22;37732;53.106;7.030;2023-10-09T03:18:52;13.40;99.90
51655;DHT22;37732;53.106;7.030;2023-10-09T03:21:19;13.40;99.90
51655;DHT22;37732;53.106;7.030;2023-10-09T03:23:48;13.40;99.90
51655;DHT22;37732;53.106;7.030;2023-10-09T03:26:18;13.30;99.90
51655;DHT22;37732;53.106;7.030;2023-10-09T03:28:46;13.40;99.90
51655;DHT22;37732;53.106;7.030;2023-10-09T03:31:12;13.40;99.90
51655;DHT22;37732;53.106;7.030;2023-10-09T03:33:39;13.40;99.90
51655;DHT22;37732;53.106;7.030;2023-10-09T03:36:06;13.40;99.90
51655;DHT22;37732;53.106;7.030;2023-10-09T03:38:38;13.40;99.90
51655;DHT22;37732;53.106;7.030;2023-10-09T03:41:06;13.50;99.90
51655;DHT22;37732;53.106;7.030;2023-10-09T03:43:36;13.50;99.90
51655;DHT22;37732;53.106;7.030;2023-10-09T03:46:11;13.50;99.90
51655;DHT22;37732;53.106;7.030;2023-10-09T03:48:50;13.50;99.90
51655;DHT22;37732;53.106;7.030;2023-10-09T03:51:22;13.50;99.90
51655;DHT22;37732;53.106;7.030;2023-10-09T03:53:48;13.50;99.90
51655;DHT22;37732;53.106;7.030;2023-10-09T03:56:15;13.50;99.90
51655;DHT22;37732;53.106;7.030;2023-10-09T03:58:51;13.50;99.90
51655;DHT22;37732;53.106;7.030;2023-10-09T04:01:20;13.50;99.90
51655;DHT22;37732;53.106;7.030;2023-10-09T04:03:49;13.50;99.90
51655;DHT22;37732;53.106;7.030;2023-10-09T04:06:23;13.50;99.90
51655;DHT22;37732;53.106;7.030;2023-10-09T04:08:54;13.50;99.90
51655;DHT22;37732;53.106;7.030;2023-10-09T04:11:20;13.60;99.90
51655;DHT22;37732;53.106;7.030;2023-10-09T04:13:50;13.60;99.90
51655;DHT22;37732;53.106;7.030;2023-10-09T04:16:19;13.60;99.90
51655;DHT22;37732;53.106;7.030;2023-10-09T04:19:01;13.60;99.90
51655;DHT22;37732;53.106;7.030;2023-10-09T04:21:48;13.60;99.90
51655;DHT22;37732;53.106;7.030;2023-10-09T04:24:14;13.60;99.90
51655;DHT22;37732;53.106;7.030;2023-10-09T04:26:41;13.60;99.90
51655;DHT22;37732;53.106;7.030;2023-10-09T04:29:14;13.60;99.90
51655;DHT22;37732;53.106;7.030;2023-10-09T04:31:57;13.70;99.90
51655;DHT22;37732;53.106;7.030;2023-10-09T04:34:27;13.70;99.90
51655;DHT22;37732;53.106;7.030;2023-10-09T04:37:03;13.70;99.90
51655;DHT22;37732;53.106;7.030;2023-10-09T04:39:48;13.80;99.90
51655;DHT22;37732;53.106;7.030;2023-10-09T04:42:26;13.80;99.90
51655;DHT22;37732;53.106;7.030;2023-10-09T04:45:06;13.80;99.90
51655;DHT22;37732;53.106;7.030;2023-10-09T04:47:34;13.90;99.90
51655;DHT22;37732;53.106;7.030;2023-10-09T04:50:26;13.90;99.90
51655;DHT22;37732;53.106;7.030;2023-10-09T04:52:55;14.00;99.90
51655;DHT22;37732;53.106;7.030;2023-10-09T04:55:21;13.90;99.90
51655;DHT22;37732;53.106;7.030;2023-10-09T04:58:03;14.00;99.90
51655;DHT22;37732;53.106;7.030;2023-10-09T05:00:49;14.00;99.90
51655;DHT22;37732;53.106;7.030;2023-10-09T05:03:30;14.10;99.90
51655;DHT22;37732;53.106;7.030;2023-10-09T05:06:16;14.10;99.90
51655;DHT22;37732;53.106;7.030;2023-10-09T05:08:58;14.10;99.90
51655;DHT22;37732;53.106;7.030;2023-10-09T05:11:36;14.10;99.90
51655;DHT22;37732;53.106;7.030;2023-10-09T05:14:16;14.20;99.90
51655;DHT22;37732;53.106;7.030;2023-10-09T05:16:42;14.20;99.90
51655;DHT22;37732;53.106;7.030;2023-10-09T05:19:23;14.20;99.90
51655;DHT22;37732;53.106;7.030;2023-10-09T05:22:11;14.30;99.90
51655;DHT22;37732;53.106;7.030;2023-10-09T05:24:57;14.30;99.90
51655;DHT22;37732;53.106;7.030;2023-10-09T05:27:22;14.30;99.90
51655;DHT22;37732;53.106;7.030;2023-10-09T05:30:07;14.30;99.90
51655;DHT22;37732;53.106;7.030;2023-10-09T05:32:55;14.40;99.90
51655;DHT22;37732;53.106;7.030;2023-10-09T05:35:25;14.40;99.90
51655;DHT22;37732;53.106;7.030;2023-10-09T05:38:11;14.40;99.90
51655;DHT22;37732;53.106;7.030;2023-10-09T05:40:51;14.40;99.90
51655;DHT22;37732;53.106;7.030;2023-10-09T05:43:23;14.40;99.90
51655;DHT22;37732;53.106;7.030;2023-10-09T05:46:07;14.40;99.90
51655;DHT22;37732;53.106;7.030;2023-10-09T05:48:34;14.50;99.90
51655;DHT22;37732;53.106;7.030;2023-10-09T05:51:03;14.50;99.90
51655;DHT22;37732;53.106;7.030;2023-10-09T05:53:35;14.50;99.90
51655;DHT22;37732;53.106;7.030;2023-10-09T05:56:00;14.60;99.90
51655;DHT22;37732;53.106;7.030;2023-10-09T05:58:45;14.60;99.90
51655;DHT22;37732;53.106;7.030;2023-10-09T06:01:29;14.60;99.90
51655;DHT22;37732;53.106;7.030;2023-10-09T06:04:13;14.70;99.90
51655;DHT22;37732;53.106;7.030;2023-10-09T06:06:44;14.70;99.90
51655;DHT22;37732;53.106;7.030;2023-10-09T06:09:15;14.70;99.90
51655;DHT22;37732;53.106;7.030;2023-10-09T06:11:44;14.80;99.90
51655;DHT22;37732;53.106;7.030;2023-10-09T06:14:20;14.80;99.90
51655;DHT22;37732;53.106;7.030;2023-10-09T06:16:58;14.80;99.90
51655;DHT22;37732;53.106;7.030;2023-10-09T06:19:39;14.80;99.90
51655;DHT22;37732;53.106;7.030;2023-10-09T06:22:15;14.80;99.90
51655;DHT22;37732;53.106;7.030;2023-10-09T06:24:50;14.90;99.90
51655;DHT22;37732;53.106;7.030;2023-10-09T06:27:21;15.10;99.90
51655;DHT22;37732;53.106;7.030;2023-10-09T06:29:59;14.90;99.90
51655;DHT22;37732;53.106;7.030;2023-10-09T06:32:49;15.00;99.90
51655;DHT22;37732;53.106;7.030;2023-10-09T06:35:17;15.00;99.90
51655;DHT22;37732;53.106;7.030;2023-10-09T06:38:10;15.00;99.90
51655;DHT22;37732;53.106;7.030;2023-10-09T06:40:49;15.00;99.90
51655;DHT22;37732;53.106;7.030;2023-10-09T06:43:22;15.10;99.90
51655;DHT22;37732;53.106;7.030;2023-10-09T06:45:56;15.10;99.90
51655;DHT22;37732;53.106;7.030;2023-10-09T06:48:45;15.10;99.90
51655;DHT22;37732;53.106;7.030;2023-10-09T06:51:14;15.10;99.90
51655;DHT22;37732;53.106;7.030;2023-10-09T06:53:53;15.20;99.90
51655;DHT22;37732;53.106;7.030;2023-10-09T06:56:22;15.30;99.90
51655;DHT22;37732;53.106;7.030;2023-10-09T06:59:02;15.50;99.90
51655;DHT22;37732;53.106;7.030;2023-10-09T07:01:56;15.30;99.90
51655;DHT22;37732;53.106;7.030;2023-10-09T07:04:34;15.30;99.90
51655;DHT22;37732;53.106;7.030;2023-10-09T07:07:00;15.30;99.90
51655;DHT22;37732;53.106;7.030;2023-10-09T07:09:34;15.40;99.90
51655;DHT22;37732;53.106;7.030;2023-10-09T07:12:10;15.30;99.90
51655;DHT22;37732;53.106;7.030;2023-10-09T07:14:39;15.40;99.90
51655;DHT22;37732;53.106;7.030;2023-10-09T07:17:08;15.40;99.90
51655;DHT22;37732;53.106;7.030;2023-10-09T07:19:53;15.40;99.90
51655;DHT22;37732;53.106;7.030;2023-10-09T07:22:19;15.40;99.90
51655;DHT22;37732;53.106;7.030;2023-10-09T07:24:45;15.40;99.90
51655;DHT22;37732;53.106;7.030;2023-10-09T07:27:26;15.50;99.90
51655;DHT22;37732;53.106;7.030;2023-10-09T07:30:16;15.50;99.90
51655;DHT22;37732;53.106;7.030;2023-10-09T07:33:12;15.50;99.90
51655;DHT22;37732;53.106;7.030;2023-10-09T07:35:48;15.50;99.90
51655;DHT22;37732;53.106;7.030;2023-10-09T07:38:23;15.60;99.90
51655;DHT22;37732;53.106;7.030;2023-10-09T07:40:55;15.60;99.90
51655;DHT22;37732;53.106;7.030;2023-10-09T07:43:34;15.60;99.90
51655;DHT22;37732;53.106;7.030;2023-10-09T07:46:14;15.60;99.90
51655;DHT22;37732;53.106;7.030;2023-10-09T07:49:02;15.60;99.90
51655;DHT22;37732;53.106;7.030;2023-10-09T07:51:35;15.70;99.90
51655;DHT22;37732;53.106;7.030;2023-10-09T07:54:02;15.70;99.90
51655;DHT22;37732;53.106;7.030;2023-10-09T07:56:35;15.70;99.90
51655;DHT22;37732;53.106;7.030;2023-10-09T07:59:11;15.80;99.90
51655;DHT22;37732;53.106;7.030;2023-10-09T08:04:04;15.80;99.90
51655;DHT22;37732;53.106;7.030;2023-10-09T08:06:41;15.90;99.90
51655;DHT22;37732;53.106;7.030;2023-10-09T08:09:11;15.90;99.90
51655;DHT22;37732;53.106;7.030;2023-10-09T08:11:42;15.90;99.90
51655;DHT22;37732;53.106;7.030;2023-10-09T08:14:13;15.90;99.90
51655;DHT22;37732;53.106;7.030;2023-10-09T08:16:58;15.90;99.90
51655;DHT22;37732;53.106;7.030;2023-10-09T08:20:03;15.90;99.90
51655;DHT22;37732;53.106;7.030;2023-10-09T08:22:42;16.00;99.90
51655;DHT22;37732;53.106;7.030;2023-10-09T08:25:10;16.00;99.90
51655;DHT22;37732;53.106;7.030;2023-10-09T08:28:03;16.00;99.90
51655;DHT22;37732;53.106;7.030;2023-10-09T08:30:52;16.10;99.90
51655;DHT22;37732;53.106;7.030;2023-10-09T08:33:21;16.10;99.90
51655;DHT22;37732;53.106;7.030;2023-10-09T08:35:52;16.10;99.90
51655;DHT22;37732;53.106;7.030;2023-10-09T08:38:22;16.10;99.90
51655;DHT22;37732;53.106;7.030;2023-10-09T08:40:50;16.10;99.90
51655;DHT22;37732;53.106;7.030;2023-10-09T08:43:21;16.10;99.90
51655;DHT22;37732;53.106;7.030;2023-10-09T08:48:13;16.10;99.90
51655;DHT22;37732;53.106;7.030;2023-10-09T08:50:45;16.20;99.90
51655;DHT22;37732;53.106;7.030;2023-10-09T08:53:16;16.20;99.90
51655;DHT22;37732;53.106;7.030;2023-10-09T08:55:43;16.20;99.90
51655;DHT22;37732;53.106;7.030;2023-10-09T08:58:10;16.20;99.90
51655;DHT22;37732;53.106;7.030;2023-10-09T09:00:47;16.20;99.90
51655;DHT22;37732;53.106;7.030;2023-10-09T09:03:19;16.20;99.90
51655;DHT22;37732;53.106;7.030;2023-10-09T09:05:48;16.20;99.90
51655;DHT22;37732;53.106;7.030;2023-10-09T09:08:27;16.20;99.90
51655;DHT22;37732;53.106;7.030;2023-10-09T09:10:58;16.30;99.90
51655;DHT22;37732;53.106;7.030;2023-10-09T09:13:31;16.30;99.90
51655;DHT22;37732;53.106;7.030;2023-10-09T09:15:59;16.30;99.90
51655;DHT22;37732;53.106;7.030;2023-10-09T09:18:28;16.30;99.90
51655;DHT22;37732;53.106;7.030;2023-10-09T09:21:17;16.30;99.90
51655;DHT22;37732;53.106;7.030;2023-10-09T09:26:36;16.40;99.90
51655;DHT22;37732;53.106;7.030;2023-10-09T09:29:11;16.40;99.90
51655;DHT22;37732;53.106;7.030;2023-10-09T09:31:37;16.50;99.90
51655;DHT22;37732;53.106;7.030;2023-10-09T09:34:06;16.60;99.90
51655;DHT22;37732;53.106;7.030;2023-10-09T09:36:59;16.50;99.90
51655;DHT22;37732;53.106;7.030;2023-10-09T09:39:29;16.60;99.90
51655;DHT22;37732;53.106;7.030;2023-10-09T09:41:59;16.60;99.90
51655;DHT22;37732;53.106;7.030;2023-10-09T09:44:39;16.70;99.90
51655;DHT22;37732;53.106;7.030;2023-10-09T09:47:15;16.70;99.90
51655;DHT22;37732;53.106;7.030;2023-10-09T09:49:54;16.70;99.90
51655;DHT22;37732;53.106;7.030;2023-10-09T09:52:31;16.70;99.90
51655;DHT22;37732;53.106;7.030;2023-10-09T09:55:10;16.80;99.90
51655;DHT22;37732;53.106;7.030;2023-10-09T09:57:48;16.80;99.90
51655;DHT22;37732;53.106;7.030;2023-10-09T10:00:23;16.80;99.90
51655;DHT22;37732;53.106;7.030;2023-10-09T10:03:08;16.80;99.90
51655;DHT22;37732;53.106;7.030;2023-10-09T10:05:35;16.80;99.90
51655;DHT22;37732;53.106;7.030;2023-10-09T10:08:03;16.90;99.90
51655;DHT22;37732;53.106;7.030;2023-10-09T10:10:38;16.80;99.90
51655;DHT22;37732;53.106;7.030;2023-10-09T10:13:13;16.90;99.90
51655;DHT22;37732;53.106;7.030;2023-10-09T10:15:57;16.90;99.90
51655;DHT22;37732;53.106;7.030;2023-10-09T10:18:33;17.00;99.90
51655;DHT22;37732;53.106;7.030;2023-10-09T10:21:11;17.00;99.90
51655;DHT22;37732;53.106;7.030;2023-10-09T10:23:44;17.00;99.90
51655;DHT22;37732;53.106;7.030;2023-10-09T10:26:32;17.00;99.90
51655;DHT22;37732;53.106;7.030;2023-10-09T10:29:17;17.00;99.90
51655;DHT22;37732;53.106;7.030;2023-10-09T10:31:55;17.00;99.90
51655;DHT22;37732;53.106;7.030;2023-10-09T10:34:26;17.00;99.90
51655;DHT22;37732;53.106;7.030;2023-10-09T10:36:53;17.00;99.90
51655;DHT22;37732;53.106;7.030;2023-10-09T10:39:31;16.90;99.90
51655;DHT22;37732;53.106;7.030;2023-10-09T10:42:09;17.00;99.90
51655;DHT22;37732;53.106;7.030;2023-10-09T10:44:41;16.90;99.90
51655;DHT22;37732;53.106;7.030;2023-10-09T10:50:23;16.90;99.90
51655;DHT22;37732;53.106;7.030;2023-10-09T10:53:13;16.80;99.90
51655;DHT22;37732;53.106;7.030;2023-10-09T10:55:55;16.90;99.90
51655;DHT22;37732;53.106;7.030;2023-10-09T10:58:22;16.80;99.90
51655;DHT22;37732;53.106;7.030;2023-10-09T11:00:56;16.90;99.90
51655;DHT22;37732;53.106;7.030;2023-10-09T11:03:22;16.80;99.90
51655;DHT22;37732;53.106;7.030;2023-10-09T11:12:27;17.00;99.90
51655;DHT22;37732;53.106;7.030;2023-10-09T11:15:13;17.00;99.90
51655;DHT22;37732;53.106;7.030;2023-10-09T11:18:00;17.00;99.90
51655;DHT22;37732;53.106;7.030;2023-10-09T11:20:32;17.00;99.90
51655;DHT22;37732;53.106;7.030;2023-10-09T11:22:59;17.00;99.90
51655;DHT22;37732;53.106;7.030;2023-10-09T11:25:45;17.00;99.90
51655;DHT22;37732;53.106;7.030;2023-10-09T11:28:23;17.00;99.90
51655;DHT22;37732;53.106;7.030;2023-10-09T11:31:11;17.00;99.90
51655;DHT22;37732;53.106;7.030;2023-10-09T11:33:46;17.00;99.90
51655;DHT22;37732;53.106;7.030;2023-10-09T11:36:15;17.40;99.90
51655;DHT22;37732;53.106;7.030;2023-10-09T11:38:41;16.90;99.90
51655;DHT22;37732;53.106;7.030;2023-10-09T11:41:17;17.00;99.90
51655;DHT22;37732;53.106;7.030;2023-10-09T11:43:54;17.10;99.90
51655;DHT22;37732;53.106;7.030;2023-10-09T11:46:23;17.20;99.90
51655;DHT22;37732;53.106;7.030;2023-10-09T11:49:14;17.20;99.90
51655;DHT22;37732;53.106;7.030;2023-10-09T11:51:41;17.20;99.90
51655;DHT22;37732;53.106;7.030;2023-10-09T11:54:34;17.20;99.90
51655;DHT22;37732;53.106;7.030;2023-10-09T11:57:00;17.30;99.90
51655;DHT22;37732;53.106;7.030;2023-10-09T11:59:32;17.20;99.90
51655;DHT22;37732;53.106;7.030;2023-10-09T12:02:08;17.20;99.90
51655;DHT22;37732;53.106;7.030;2023-10-09T12:04:38;17.20;99.90
51655;DHT22;37732;53.106;7.030;2023-10-09T12:07:08;17.10;99.90
51655;DHT22;37732;53.106;7.030;2023-10-09T12:09:36;17.10;99.90
51655;DHT22;37732;53.106;7.030;2023-10-09T12:12:06;17.10;99.90
51655;DHT22;37732;53.106;7.030;2023-10-09T12:14:35;17.10;99.90
51655;DHT22;37732;53.106;7.030;2023-10-09T12:17:04;17.10;99.90
51655;DHT22;37732;53.106;7.030;2023-10-09T12:19:38;17.10;99.90
51655;DHT22;37732;53.106;7.030;2023-10-09T12:22:08;17.30;99.90
51655;DHT22;37732;53.106;7.030;2023-10-09T12:24:41;17.40;99.90
51655;DHT22;37732;53.106;7.030;2023-10-09T12:27:09;17.50;99.90
51655;DHT22;37732;53.106;7.030;2023-10-09T12:29:38;17.60;99.90
51655;DHT22;37732;53.106;7.030;2023-10-09T12:32:03;17.60;99.90
51655;DHT22;37732;53.106;7.030;2023-10-09T12:34:32;17.60;99.90
51655;DHT22;37732;53.106;7.030;2023-10-09T12:36:57;17.60;99.90
51655;DHT22;37732;53.106;7.030;2023-10-09T12:39:29;17.50;99.90
51655;DHT22;37732;53.106;7.030;2023-10-09T12:42:02;17.50;99.90
51655;DHT22;37732;53.106;7.030;2023-10-09T12:44:34;17.50;99.90
51655;DHT22;37732;53.106;7.030;2023-10-09T12:47:07;17.40;99.90
51655;DHT22;37732;53.106;7.030;2023-10-09T12:49:33;17.50;99.90
51655;DHT22;37732;53.106;7.030;2023-10-09T12:51:58;17.40;99.90
51655;DHT22;37732;53.106;7.030;2023-10-09T12:54:27;17.50;99.90
51655;DHT22;37732;53.106;7.030;2023-10-09T12:56:56;17.50;99.90
51655;DHT22;37732;53.106;7.030;2023-10-09T12:59:23;17.60;99.90
51655;DHT22;37732;53.106;7.030;2023-10-09T13:01:49;17.60;99.90
51655;DHT22;37732;53.106;7.030;2023-10-09T13:04:19;17.60;99.90
51655;DHT22;37732;53.106;7.030;2023-10-09T13:06:47;17.60;99.90
51655;DHT22;37732;53.106;7.030;2023-10-09T13:09:16;17.60;99.90
51655;DHT22;37732;53.106;7.030;2023-10-09T13:11:49;17.60;99.90
51655;DHT22;37732;53.106;7.030;2023-10-09T13:14:16;17.60;99.90
51655;DHT22;37732;53.106;7.030;2023-10-09T13:16:45;17.60;99.90
51655;DHT22;37732;53.106;7.030;2023-10-09T13:19:12;17.60;99.90
51655;DHT22;37732;53.106;7.030;2023-10-09T13:21:38;17.50;99.90
51655;DHT22;37732;53.106;7.030;2023-10-09T13:24:08;17.50;99.90
51655;DHT22;37732;53.106;7.030;2023-10-09T13:26:44;17.40;99.90
51655;DHT22;37732;53.106;7.030;2023-10-09T13:29:17;17.50;99.90
51655;DHT22;37732;53.106;7.030;2023-10-09T13:31:48;17.40;99.90
51655;DHT22;37732;53.106;7.030;2023-10-09T13:34:15;17.40;99.90
51655;DHT22;37732;53.106;7.030;2023-10-09T13:36:44;17.40;99.90
51655;DHT22;37732;53.106;7.030;2023-10-09T13:39:19;17.40;99.90
51655;DHT22;37732;53.106;7.030;2023-10-09T13:41:56;17.30;99.90
51655;DHT22;37732;53.106;7.030;2023-10-09T13:44:31;17.30;99.90
51655;DHT22;37732;53.106;7.030;2023-10-09T13:46:59;17.30;99.90
51655;DHT22;37732;53.106;7.030;2023-10-09T13:49:25;17.20;99.90
51655;DHT22;37732;53.106;7.030;2023-10-09T13:51:59;17.20;99.90
51655;DHT22;37732;53.106;7.030;2023-10-09T13:54:27;17.20;99.90
51655;DHT22;37732;53.106;7.030;2023-10-09T13:57:03;17.20;99.90
51655;DHT22;37732;53.106;7.030;2023-10-09T13:59:30;17.20;99.90
51655;DHT22;37732;53.106;7.030;2023-10-09T14:01:56;17.10;99.90
51655;DHT22;37732;53.106;7.030;2023-10-09T14:04:22;17.10;99.90
51655;DHT22;37732;53.106;7.030;2023-10-09T14:06:49;17.10;99.90
51655;DHT22;37732;53.106;7.030;2023-10-09T14:09:25;17.00;99.90
51655;DHT22;37732;53.106;7.030;2023-10-09T14:12:04;17.00;99.90
51655;DHT22;37732;53.106;7.030;2023-10-09T14:14:37;17.00;99.90
51655;DHT22;37732;53.106;7.030;2023-10-09T14:17:16;17.00;99.90
51655;DHT22;37732;53.106;7.030;2023-10-09T14:19:47;16.90;99.90
51655;DHT22;37732;53.106;7.030;2023-10-09T14:22:17;16.90;99.90
51655;DHT22;37732;53.106;7.030;2023-10-09T14:24:47;16.80;99.90
51655;DHT22;37732;53.106;7.030;2023-10-09T14:27:16;16.90;99.90
51655;DHT22;37732;53.106;7.030;2023-10-09T14:29:45;16.90;99.90
51655;DHT22;37732;53.106;7.030;2023-10-09T14:32:11;16.90;99.90
51655;DHT22;37732;53.106;7.030;2023-10-09T14:34:44;16.90;99.90
51655;DHT22;37732;53.106;7.030;2023-10-09T14:37:16;16.90;99.90
51655;DHT22;37732;53.106;7.030;2023-10-09T14:39:42;16.80;99.90
51655;DHT22;37732;53.106;7.030;2023-10-09T14:42:08;16.80;99.90
51655;DHT22;37732;53.106;7.030;2023-10-09T14:44:37;16.80;99.90
51655;DHT22;37732;53.106;7.030;2023-10-09T14:47:07;16.80;99.90
51655;DHT22;37732;53.106;7.030;2023-10-09T14:49:33;16.80;99.90
51655;DHT22;37732;53.106;7.030;2023-10-09T14:52:00;16.80;99.90
51655;DHT22;37732;53.106;7.030;2023-10-09T14:54:26;16.80;99.90
51655;DHT22;37732;53.106;7.030;2023-10-09T14:56:53;16.70;99.90
51655;DHT22;37732;53.106;7.030;2023-10-09T14:59:20;16.70;99.90
51655;DHT22;37732;53.106;7.030;2023-10-09T15:01:50;16.70;99.90
51655;DHT22;37732;53.106;7.030;2023-10-09T15:04:16;16.70;99.90
51655;DHT22;37732;53.106;7.030;2023-10-09T15:06:42;16.70;99.90
51655;DHT22;37732;53.106;7.030;2023-10-09T15:09:08;16.70;99.90
51655;DHT22;37732;53.106;7.030;2023-10-09T15:11:35;16.70;99.90
51655;DHT22;37732;53.106;7.030;2023-10-09T15:14:02;16.70;99.90
51655;DHT22;37732;53.106;7.030;2023-10-09T15:16:30;16.70;99.90
51655;DHT22;37732;53.106;7.030;2023-10-09T15:18:57;16.70;99.90
51655;DHT22;37732;53.106;7.030;2023-10-09T15:21:25;16.70;99.90
51655;DHT22;37732;53.106;7.030;2023-10-09T15:23:56;16.70;99.90
51655;DHT22;37732;53.106;7.030;2023-10-09T15:26:22;16.70;99.90
51655;DHT22;37732;53.106;7.030;2023-10-09T15:28:51;16.70;99.90
51655;DHT22;37732;53.106;7.030;2023-10-09T15:31:17;16.70;99.90
51655;DHT22;37732;53.106;7.030;2023-10-09T15:33:44;16.60;99.90
51655;DHT22;37732;53.106;7.030;2023-10-09T15:36:13;16.60;99.90
51655;DHT22;37732;53.106;7.030;2023-10-09T15:38:40;16.60;99.90
51655;DHT22;37732;53.106;7.030;2023-10-09T15:41:06;16.60;99.90
51655;DHT22;37732;53.106;7.030;2023-10-09T15:43:33;16.70;99.90
51655;DHT22;37732;53.106;7.030;2023-10-09T15:45:59;16.70;99.90
51655;DHT22;37732;53.106;7.030;2023-10-09T15:48:25;16.70;99.90
51655;DHT22;37732;53.106;7.030;2023-10-09T15:50:50;16.70;99.90
51655;DHT22;37732;53.106;7.030;2023-10-09T15:53:18;16.70;99.90
51655;DHT22;37732;53.106;7.030;2023-10-09T15:55:47;16.70;99.90
51655;DHT22;37732;53.106;7.030;2023-10-09T15:58:17;16.60;99.90
51655;DHT22;37732;53.106;7.030;2023-10-09T16:00:45;16.60;99.90
51655;DHT22;37732;53.106;7.030;2023-10-09T16:03:11;16.60;99.90
51655;DHT22;37732;53.106;7.030;2023-10-09T16:05:40;16.60;99.90
51655;DHT22;37732;53.106;7.030;2023-10-09T16:08:06;16.60;99.90
51655;DHT22;37732;53.106;7.030;2023-10-09T16:10:32;16.60;99.90
51655;DHT22;37732;53.106;7.030;2023-10-09T16:13:00;16.50;99.90
51655;DHT22;37732;53.106;7.030;2023-10-09T16:15:27;16.50;99.90
51655;DHT22;37732;53.106;7.030;2023-10-09T16:17:53;16.50;99.90
51655;DHT22;37732;53.106;7.030;2023-10-09T16:20:29;16.50;99.90
51655;DHT22;37732;53.106;7.030;2023-10-09T16:22:57;16.40;99.90
51655;DHT22;37732;53.106;7.030;2023-10-09T16:25:24;16.40;99.90
51655;DHT22;37732;53.106;7.030;2023-10-09T16:27:52;16.40;99.90